createdAt,value
2023-03-10T00:02:12.144Z,1.17
2023-03-10T00:07:14.273Z,1.05
2023-03-10T00:12:17.871Z,1.65
2023-03-10T00:17:20.117Z,1.60
2023-03-10T00:22:21.973Z,1.38
2023-03-10T00:27:24.590Z,1.40
2023-03-10T00:32:26.568Z,1.10
2023-03-10T00:37:28.712Z,1.25
2023-03-10T00:42:30.693Z,1.48
2023-03-10T00:47:32.914Z,1.25
2023-03-10T00:52:37.442Z,1.00
2023-03-10T00:57:39.398Z,1.30
2023-03-10T01:02:41.290Z,1.42
2023-03-10T01:07:43.116Z,1.23
2023-03-10T01:12:45.156Z,1.80
2023-03-10T01:17:46.937Z,1.83
2023-03-10T01:22:48.811Z,1.80
2023-03-10T01:27:50.866Z,2.00
2023-03-10T01:32:52.698Z,2.28
2023-03-10T01:37:55.136Z,1.83
2023-03-10T01:43:22.400Z,2.17
2023-03-10T01:48:24.552Z,2.80
2023-03-10T01:53:28.421Z,2.25
2023-03-10T01:58:37.948Z,1.90
2023-03-10T02:04:03.514Z,2.42
2023-03-10T02:09:05.830Z,1.50
2023-03-10T02:14:07.869Z,2.15
2023-03-10T02:19:30.402Z,2.67
2023-03-10T02:24:53.021Z,1.35
2023-03-10T02:30:04.289Z,2.08
2023-03-10T02:35:06.771Z,1.63
2023-03-10T02:40:33.881Z,2.08
2023-03-10T02:45:40.041Z,1.92
2023-03-10T02:50:45.547Z,1.88
2023-03-10T02:55:47.429Z,1.75
2023-03-10T03:00:49.942Z,2.08
2023-03-10T03:05:52.647Z,1.80
2023-03-10T03:10:54.924Z,2.47
2023-03-10T03:15:56.798Z,2.28
2023-03-10T03:20:58.632Z,2.40
2023-03-10T03:26:00.948Z,3.72
2023-03-10T03:31:02.901Z,2.92
2023-03-10T03:36:04.934Z,2.63
2023-03-10T03:41:07.820Z,2.70
2023-03-10T03:46:09.817Z,2.20
2023-03-10T03:51:11.673Z,4.07
2023-03-10T03:56:13.478Z,2.58
2023-03-10T04:01:16.567Z,2.25
2023-03-10T04:06:18.547Z,1.45
2023-03-10T04:11:20.490Z,2.33
2023-03-10T04:16:22.320Z,1.73
2023-03-10T04:21:25.524Z,1.17
2023-03-10T04:26:27.356Z,1.60
2023-03-10T04:31:29.177Z,1.10
2023-03-10T04:36:31.194Z,1.55
2023-03-10T04:41:33.237Z,1.08
2023-03-10T04:46:35.466Z,1.33
2023-03-10T04:51:37.268Z,2.03
2023-03-10T04:56:39.237Z,0.82
2023-03-10T05:01:41.119Z,0.82
2023-03-10T05:06:43.159Z,0.80
2023-03-10T05:11:45.485Z,1.25
2023-03-10T05:16:48.720Z,1.10
2023-03-10T05:21:50.491Z,0.82
2023-03-10T05:26:52.500Z,1.10
2023-03-10T05:31:54.509Z,1.92
2023-03-10T05:36:56.586Z,1.00
2023-03-10T05:41:58.443Z,1.33
2023-03-10T05:47:00.470Z,1.42
2023-03-10T05:52:02.376Z,1.65
2023-03-10T05:57:04.612Z,1.52
2023-03-10T06:02:06.425Z,1.08
2023-03-10T06:07:08.452Z,1.67
2023-03-10T06:12:10.280Z,1.35
2023-03-10T06:17:12.054Z,1.63
2023-03-10T06:22:13.826Z,1.60
2023-03-10T06:27:15.771Z,2.03
2023-03-10T06:32:17.928Z,1.70
2023-03-10T06:37:20.692Z,2.60
2023-03-10T06:42:22.508Z,2.05
2023-03-10T06:47:24.567Z,1.20
2023-03-10T06:52:26.425Z,2.05
2023-03-10T06:57:28.646Z,1.42
2023-03-10T07:02:30.667Z,2.20
2023-03-10T07:07:32.529Z,1.83
2023-03-10T07:12:34.364Z,1.83
2023-03-10T07:17:36.277Z,2.17
2023-03-10T07:22:38.048Z,2.00
2023-03-10T07:27:39.945Z,1.73
2023-03-10T07:32:41.977Z,2.50
2023-03-10T07:37:43.815Z,2.85
2023-03-10T07:42:45.594Z,2.58
2023-03-10T07:47:47.923Z,2.80
2023-03-10T07:52:50.407Z,2.08
2023-03-10T07:57:52.232Z,2.00
2023-03-10T08:02:53.987Z,2.25
2023-03-10T08:07:55.791Z,1.92
2023-03-10T08:12:57.591Z,2.00
2023-03-10T08:18:00.168Z,2.00
2023-03-10T08:23:02.351Z,2.63
2023-03-10T08:28:04.195Z,2.33
2023-03-10T08:33:08.364Z,1.88
2023-03-10T08:38:10.223Z,1.65
2023-03-10T08:43:11.999Z,1.92
2023-03-10T08:48:13.824Z,1.50
2023-03-10T08:53:15.582Z,1.60
2023-03-10T08:58:17.598Z,1.70
2023-03-10T09:03:20.016Z,1.60
2023-03-10T09:08:22.274Z,1.45
2023-03-10T09:13:24.193Z,1.73
2023-03-10T09:18:26.099Z,1.50
2023-03-10T09:23:28.388Z,1.30
2023-03-10T09:28:30.443Z,1.10
2023-03-10T09:33:32.706Z,1.73
2023-03-10T09:38:35.521Z,1.38
2023-03-10T09:43:40.067Z,1.13
2023-03-10T09:49:16.677Z,1.48
2023-03-10T09:54:50.468Z,1.25
2023-03-10T09:59:58.858Z,1.00
2023-03-10T10:05:14.948Z,1.08
2023-03-10T10:10:25.020Z,0.93
2023-03-10T10:15:28.981Z,1.10
2023-03-10T10:20:42.420Z,1.13
2023-03-10T10:25:44.331Z,1.10
2023-03-10T10:30:46.379Z,1.33
2023-03-10T10:36:03.393Z,1.50
2023-03-10T10:41:21.804Z,1.60
2023-03-10T10:46:27.346Z,1.60
2023-03-10T10:51:32.508Z,1.90
2023-03-10T10:56:34.634Z,1.63
2023-03-10T11:01:54.177Z,2.50
2023-03-10T11:07:11.540Z,2.28
2023-03-10T11:12:34.443Z,1.52
2023-03-10T11:17:49.313Z,1.45
2023-03-10T11:22:57.038Z,1.80
2023-03-10T11:28:13.982Z,1.58
2023-03-10T11:33:25.044Z,1.50
2023-03-10T11:38:32.872Z,1.60
2023-03-10T11:44:19.155Z,1.50
2023-03-10T11:49:26.928Z,1.52
2023-03-10T11:54:35.462Z,1.70
2023-03-10T11:59:44.325Z,1.35
2023-03-10T12:04:59.232Z,1.40
2023-03-10T12:10:24.123Z,1.58
2023-03-10T12:15:37.111Z,1.60
2023-03-10T12:20:38.948Z,1.20
2023-03-10T12:25:44.908Z,1.27
2023-03-10T12:30:59.657Z,1.50
2023-03-10T12:36:15.013Z,1.88
2023-03-10T12:41:29.250Z,1.23
2023-03-10T12:46:47.863Z,1.50
2023-03-10T12:52:01.054Z,1.48
2023-03-10T12:57:19.165Z,1.52
2023-03-10T13:02:32.565Z,1.63
2023-03-10T13:07:35.966Z,1.40
2023-03-10T13:12:51.275Z,1.70
2023-03-10T13:17:55.312Z,1.33
2023-03-10T13:22:59.263Z,1.70
2023-03-10T13:28:10.025Z,1.60
2023-03-10T13:38:27.968Z,1.70
2023-03-10T13:43:41.750Z,1.83
2023-03-10T13:48:44.487Z,1.65
2023-03-10T13:53:48.381Z,1.92
2023-03-10T13:58:52.457Z,2.30
2023-03-10T14:03:57.488Z,1.80
2023-03-10T14:09:18.079Z,2.30
2023-03-10T14:14:38.040Z,2.65
2023-03-10T14:19:42.677Z,3.20
2023-03-10T14:24:44.475Z,2.20
2023-03-10T14:29:50.967Z,1.45
2023-03-10T14:34:52.810Z,1.23
2023-03-10T14:39:54.526Z,1.65
2023-03-10T14:44:59.984Z,2.13
2023-03-10T14:50:02.056Z,2.25
2023-03-10T14:55:08.089Z,2.85
2023-03-10T15:00:28.225Z,2.67
2023-03-10T15:05:45.390Z,2.38
2023-03-10T15:10:51.060Z,2.45
2023-03-10T15:15:53.362Z,1.98
2023-03-10T15:20:58.982Z,1.90
2023-03-10T15:26:03.852Z,1.98
2023-03-10T15:31:06.718Z,2.35
2023-03-10T15:36:09.644Z,2.33
2023-03-10T15:41:13.077Z,1.98
2023-03-10T15:46:15.004Z,2.53
2023-03-10T15:51:18.057Z,2.42
2023-03-10T15:56:19.839Z,2.50
2023-03-10T16:01:21.800Z,2.58
2023-03-10T16:06:28.183Z,2.38
2023-03-10T16:11:30.023Z,2.83
2023-03-10T16:16:31.917Z,1.63
2023-03-10T16:21:33.738Z,1.60
2023-03-10T16:26:35.515Z,1.92
2023-03-10T16:31:38.947Z,2.03
2023-03-10T16:36:40.836Z,1.55
2023-03-10T16:41:42.714Z,1.55
2023-03-10T16:46:44.753Z,0.90
2023-03-10T16:51:47.868Z,0.90
2023-03-10T16:56:51.804Z,1.08
2023-03-10T17:01:53.815Z,0.98
2023-03-10T17:06:55.709Z,1.58
2023-03-10T17:11:57.564Z,1.85
2023-03-10T17:17:01.638Z,1.90
2023-03-10T17:22:03.470Z,1.45
2023-03-10T17:27:07.402Z,1.60
2023-03-10T17:32:09.243Z,1.50
2023-03-10T17:37:11.137Z,1.50
2023-03-10T17:42:12.877Z,1.73
2023-03-10T17:47:14.620Z,1.77
2023-03-10T17:52:16.409Z,1.42
2023-03-10T17:57:18.484Z,1.58
2023-03-10T18:02:20.404Z,1.23
2023-03-10T18:07:22.205Z,1.00
2023-03-10T18:12:24.419Z,1.20
2023-03-10T18:17:27.559Z,1.88
2023-03-10T18:22:29.327Z,1.33
2023-03-10T18:27:32.333Z,1.50
2023-03-10T18:32:34.720Z,1.40
2023-03-10T18:37:36.881Z,1.13
2023-03-10T18:42:38.700Z,1.38
2023-03-10T18:47:40.543Z,1.83
2023-03-10T18:52:42.934Z,1.77
2023-03-10T18:57:44.962Z,2.75
2023-03-10T19:02:46.874Z,1.80
2023-03-10T19:07:48.683Z,1.75
2023-03-10T19:12:51.942Z,2.05
2023-03-10T19:17:53.802Z,1.27
2023-03-10T19:22:55.673Z,1.92
2023-03-10T19:27:57.903Z,1.70
2023-03-10T19:33:00.725Z,1.25
2023-03-10T19:38:02.861Z,1.95
2023-03-10T19:43:04.995Z,1.65
2023-03-10T19:48:06.987Z,1.50
2023-03-10T19:53:11.449Z,1.60
2023-03-10T19:58:13.638Z,2.80
2023-03-10T20:03:16.708Z,1.42
2023-03-10T20:08:20.104Z,1.05
2023-03-10T20:13:21.999Z,1.88
2023-03-10T20:18:24.436Z,2.05
2023-03-10T20:23:27.058Z,2.70
2023-03-10T20:28:29.032Z,1.58
2023-03-10T20:33:31.245Z,1.95
2023-03-10T20:38:33.038Z,2.03
2023-03-10T20:43:35.740Z,2.75
2023-03-10T20:48:37.810Z,1.95
2023-03-10T20:53:39.578Z,1.70
2023-03-10T20:58:41.544Z,1.45
2023-03-10T21:03:43.371Z,1.83
2023-03-10T21:08:45.537Z,1.65
2023-03-10T21:13:47.325Z,1.70
2023-03-10T21:18:49.155Z,1.80
2023-03-10T21:23:50.909Z,2.47
2023-03-10T21:28:52.920Z,1.92
2023-03-10T21:33:54.813Z,2.00
2023-03-10T21:38:56.893Z,1.73
2023-03-10T21:43:59.726Z,1.83
2023-03-10T21:49:01.696Z,1.75
2023-03-10T21:54:04.486Z,2.22
2023-03-10T21:59:07.403Z,2.22
2023-03-10T22:04:12.320Z,2.30
2023-03-10T22:09:14.394Z,2.75
2023-03-10T22:14:16.259Z,1.73
2023-03-10T22:19:18.013Z,1.63
2023-03-10T22:24:19.764Z,2.13
2023-03-10T22:29:21.595Z,2.63
2023-03-10T22:34:24.664Z,2.03
2023-03-10T22:39:26.482Z,2.28
2023-03-10T22:44:28.316Z,2.80
2023-03-10T22:49:30.238Z,2.28
2023-03-10T22:54:31.991Z,2.28
2023-03-10T22:59:33.749Z,2.35
2023-03-10T23:04:35.576Z,3.13
2023-03-10T23:09:37.646Z,2.05
2023-03-10T23:14:39.420Z,1.83
2023-03-10T23:19:41.369Z,1.75
2023-03-10T23:24:43.255Z,2.40
2023-03-10T23:29:46.619Z,2.22
2023-03-10T23:34:48.575Z,2.70
2023-03-10T23:39:51.129Z,3.40
2023-03-10T23:44:52.908Z,6.25
2023-03-10T23:49:56.156Z,7.55
2023-03-10T23:54:57.927Z,9.68
2023-03-10T23:59:59.776Z,9.10
